createdAt,value
2019-01-30T00:00:31.387Z,38.37
2019-01-30T00:03:02.097Z,30.63
2019-01-30T00:05:32.647Z,32.87
2019-01-30T00:08:03.281Z,30.80
2019-01-30T00:10:33.820Z,32.67
2019-01-30T00:13:04.358Z,28.50
2019-01-30T00:15:34.985Z,29.30
2019-01-30T00:18:06.468Z,31.77
2019-01-30T00:20:37.138Z,28.30
2019-01-30T00:23:07.868Z,29.60
2019-01-30T00:25:38.522Z,29.23
2019-01-30T00:28:09.212Z,27.40
2019-01-30T00:30:39.921Z,26.67
2019-01-30T00:33:10.512Z,25.93
2019-01-30T00:35:41.961Z,26.63
2019-01-30T00:38:12.566Z,26.73
2019-01-30T00:40:43.274Z,29.70
2019-01-30T00:43:13.945Z,24.33
2019-01-30T00:45:44.466Z,24.43
2019-01-30T00:48:15.105Z,25.80
2019-01-30T00:50:45.793Z,23.63
2019-01-30T00:53:16.332Z,23.97
2019-01-30T00:55:46.901Z,21.13
2019-01-30T00:58:17.439Z,18.07
2019-01-30T01:00:48.090Z,30.93
2019-01-30T01:03:18.549Z,26.73
2019-01-30T01:05:49.205Z,22.77
2019-01-30T01:08:19.735Z,21.10
2019-01-30T01:10:50.343Z,26.93
2019-01-30T01:13:20.906Z,25.90
2019-01-30T01:15:51.560Z,18.67
2019-01-30T01:18:22.126Z,18.60
2019-01-30T01:20:52.755Z,24.83
2019-01-30T01:23:23.363Z,23.80
2019-01-30T01:25:54.008Z,28.20
2019-01-30T01:28:24.626Z,27.00
2019-01-30T01:30:55.358Z,24.80
2019-01-30T01:33:27.496Z,26.63
2019-01-30T01:35:58.862Z,27.47
2019-01-30T01:38:29.520Z,28.27
2019-01-30T01:41:00.215Z,31.13
2019-01-30T01:43:30.941Z,31.10
2019-01-30T01:46:01.572Z,26.10
2019-01-30T01:48:32.141Z,28.97
2019-01-30T01:51:03.168Z,30.90
2019-01-30T01:53:33.696Z,34.67
2019-01-30T01:56:04.406Z,27.73
2019-01-30T01:58:35.002Z,38.10
2019-01-30T02:01:05.872Z,34.50
2019-01-30T02:03:36.544Z,36.77
2019-01-30T02:06:07.414Z,41.73
2019-01-30T02:08:37.975Z,44.13
2019-01-30T02:11:08.574Z,40.73
2019-01-30T02:13:39.236Z,38.70
2019-01-30T02:16:09.939Z,46.47
2019-01-30T02:18:40.362Z,37.73
2019-01-30T02:21:10.917Z,31.57
2019-01-30T02:23:41.426Z,36.13
2019-01-30T02:26:12.103Z,30.67
2019-01-30T02:28:42.788Z,36.80
2019-01-30T02:31:13.858Z,29.53
2019-01-30T02:33:44.359Z,29.10
2019-01-30T02:36:16.936Z,26.57
2019-01-30T02:38:47.393Z,26.03
2019-01-30T02:41:17.916Z,31.30
2019-01-30T02:59:22.362Z,35.27
2019-01-30T03:01:54.573Z,39.03
2019-01-30T03:04:25.088Z,34.57
2019-01-30T03:06:55.630Z,39.10
2019-01-30T03:09:26.215Z,32.60
2019-01-30T03:11:56.764Z,49.00
2019-01-30T03:14:27.655Z,41.57
2019-01-30T03:16:58.133Z,35.40
2019-01-30T03:19:28.866Z,29.47
2019-01-30T03:21:59.431Z,35.77
2019-01-30T03:24:30.064Z,34.93
2019-01-30T03:27:00.534Z,35.87
2019-01-30T03:29:31.564Z,37.30
2019-01-30T03:32:02.992Z,37.23
2019-01-30T03:34:33.578Z,32.87
2019-01-30T03:37:05.036Z,30.03
2019-01-30T03:39:35.556Z,32.07
2019-01-30T03:42:06.216Z,28.53
2019-01-30T03:44:36.733Z,31.00
2019-01-30T03:47:07.273Z,33.40
2019-01-30T03:49:37.849Z,32.13
2019-01-30T03:52:08.667Z,37.37
2019-01-30T03:54:39.721Z,43.00
2019-01-30T03:57:10.271Z,35.53
2019-01-30T03:59:40.683Z,32.80
2019-01-30T04:02:11.329Z,36.47
2019-01-30T04:04:41.859Z,36.47
2019-01-30T04:07:12.443Z,42.23
2019-01-30T04:09:43.061Z,46.13
2019-01-30T04:12:29.714Z,42.70
2019-01-30T04:15:00.242Z,38.50
2019-01-30T04:17:30.986Z,39.10
2019-01-30T04:20:01.432Z,33.37
2019-01-30T04:22:31.954Z,31.03
2019-01-30T04:25:02.479Z,38.33
2019-01-30T04:27:33.130Z,36.37
2019-01-30T04:30:04.176Z,39.07
2019-01-30T04:32:34.717Z,44.80
2019-01-30T04:35:06.305Z,40.80
2019-01-30T04:37:37.861Z,40.90
2019-01-30T04:40:15.956Z,37.87
2019-01-30T04:42:46.621Z,34.70
2019-01-30T04:45:23.829Z,39.63
2019-01-30T04:47:54.493Z,47.17
2019-01-30T04:50:25.100Z,39.87
2019-01-30T04:52:55.695Z,44.30
2019-01-30T04:55:26.706Z,45.77
2019-01-30T04:57:58.270Z,49.23
2019-01-30T05:00:29.050Z,43.53
2019-01-30T05:02:59.599Z,39.00
2019-01-30T05:05:30.310Z,47.10
2019-01-30T05:08:00.858Z,42.57
2019-01-30T05:10:31.381Z,38.23
2019-01-30T05:13:01.957Z,41.77
2019-01-30T05:15:32.568Z,56.27
2019-01-30T05:18:03.199Z,46.18
2019-01-30T05:20:33.847Z,36.67
2019-01-30T05:23:05.610Z,45.23
2019-01-30T05:25:36.260Z,30.07
2019-01-30T05:28:06.903Z,36.15
2019-01-30T05:30:37.491Z,39.03
2019-01-30T05:33:08.112Z,41.00
2019-01-30T05:35:38.714Z,58.40
2019-01-30T05:38:10.105Z,39.23
2019-01-30T05:40:40.662Z,45.90
2019-01-30T05:43:11.353Z,36.80
2019-01-30T05:45:41.952Z,29.82
2019-01-30T05:48:12.469Z,30.10
2019-01-30T05:50:42.998Z,31.70
2019-01-30T05:53:13.421Z,35.47
2019-01-30T05:55:43.943Z,36.00
2019-01-30T05:58:14.435Z,33.73
2019-01-30T06:00:48.435Z,29.07
2019-01-30T06:03:20.087Z,35.83
2019-01-30T06:05:50.657Z,30.92
2019-01-30T06:08:21.311Z,31.60
2019-01-30T06:10:51.834Z,33.98
2019-01-30T06:13:22.392Z,25.88
2019-01-30T06:15:52.915Z,24.17
2019-01-30T06:18:23.494Z,33.45
2019-01-30T06:20:54.104Z,40.87
2019-01-30T06:23:24.717Z,39.57
2019-01-30T06:25:55.318Z,31.10
2019-01-30T06:28:29.210Z,41.20
2019-01-30T06:30:58.081Z,33.42
2019-01-30T06:33:28.563Z,40.45
2019-01-30T06:35:59.124Z,42.37
2019-01-30T06:38:30.522Z,45.27
2019-01-30T06:41:01.132Z,47.60
2019-01-30T06:43:32.725Z,35.80
2019-01-30T06:46:03.332Z,50.53
2019-01-30T06:48:34.090Z,49.10
2019-01-30T06:51:04.670Z,45.58
2019-01-30T06:53:35.191Z,46.25
2019-01-30T06:56:06.449Z,36.67
2019-01-30T06:58:37.924Z,46.20
2019-01-30T07:01:08.385Z,45.30
2019-01-30T07:03:38.900Z,62.33
2019-01-30T07:06:09.438Z,56.20
2019-01-30T07:08:40.045Z,51.13
2019-01-30T07:11:13.788Z,43.43
2019-01-30T07:13:47.442Z,40.90
2019-01-30T07:16:19.867Z,38.77
2019-01-30T07:18:52.309Z,37.60
2019-01-30T07:21:23.826Z,42.07
2019-01-30T07:23:55.345Z,40.43
2019-01-30T07:26:28.214Z,39.93
2019-01-30T07:28:59.296Z,39.93
2019-01-30T07:31:31.867Z,29.57
2019-01-30T07:34:04.018Z,38.00
2019-01-30T07:36:35.968Z,39.10
2019-01-30T07:39:09.966Z,35.10
2019-01-30T07:41:40.692Z,33.10
2019-01-30T07:44:11.390Z,31.77
2019-01-30T07:46:41.825Z,28.17
2019-01-30T07:49:12.415Z,34.13
2019-01-30T07:51:42.936Z,40.07
2019-01-30T07:54:13.598Z,36.00
2019-01-30T07:56:44.086Z,29.43
2019-01-30T07:59:14.806Z,35.40
2019-01-30T08:01:45.358Z,40.50
2019-01-30T08:04:15.966Z,33.30
2019-01-30T08:06:46.683Z,31.57
2019-01-30T08:09:17.150Z,34.10
2019-01-30T08:11:47.746Z,38.80
2019-01-30T08:14:18.460Z,32.67
2019-01-30T08:16:49.133Z,37.47
2019-01-30T08:19:19.664Z,42.53
2019-01-30T08:21:50.266Z,39.97
2019-01-30T08:24:21.000Z,42.20
2019-01-30T08:26:51.963Z,40.50
2019-01-30T08:29:22.725Z,47.53
2019-01-30T08:31:53.721Z,45.90
2019-01-30T08:34:24.290Z,47.60
2019-01-30T08:36:54.806Z,43.30
2019-01-30T08:39:26.072Z,50.20
2019-01-30T08:41:56.662Z,49.93
2019-01-30T08:44:27.200Z,47.47
2019-01-30T08:46:57.810Z,46.40
2019-01-30T08:49:28.417Z,50.20
2019-01-30T08:51:59.016Z,39.77
2019-01-30T08:54:29.482Z,36.83
2019-01-30T08:57:00.037Z,37.97
2019-01-30T08:59:30.897Z,36.00
2019-01-30T09:02:01.582Z,34.80
2019-01-30T09:04:33.491Z,37.67
2019-01-30T09:07:03.934Z,36.20
2019-01-30T09:09:34.516Z,34.43
2019-01-30T09:12:05.505Z,39.30
2019-01-30T09:14:36.160Z,33.27
2019-01-30T09:17:08.711Z,43.33
2019-01-30T09:19:39.006Z,48.53
2019-01-30T09:22:09.698Z,42.20
2019-01-30T09:24:40.354Z,45.50
2019-01-30T09:27:10.834Z,45.53
2019-01-30T09:29:41.660Z,52.73
2019-01-30T09:32:12.392Z,52.17
2019-01-30T09:34:43.073Z,56.83
2019-01-30T09:37:14.643Z,53.20
2019-01-30T09:39:48.426Z,52.20
2019-01-30T09:42:18.318Z,55.67
2019-01-30T09:44:48.846Z,60.20
2019-01-30T09:47:19.250Z,56.33
2019-01-30T09:49:49.679Z,56.37
2019-01-30T09:52:26.753Z,51.13
2019-01-30T09:54:52.649Z,51.87
2019-01-30T09:57:23.247Z,50.93
2019-01-30T09:59:53.882Z,58.63
2019-01-30T10:02:25.454Z,56.27
2019-01-30T10:04:56.085Z,52.83
2019-01-30T10:07:26.702Z,56.07
2019-01-30T10:09:57.277Z,55.10
2019-01-30T10:12:27.714Z,59.67
2019-01-30T10:14:58.385Z,62.27
2019-01-30T10:17:31.049Z,62.83
2019-01-30T10:20:00.954Z,56.30
2019-01-30T10:22:31.508Z,48.37
2019-01-30T10:25:03.017Z,47.67
2019-01-30T10:27:33.558Z,40.63
2019-01-30T10:30:05.562Z,45.77
2019-01-30T10:32:36.933Z,39.17
2019-01-30T10:35:08.763Z,38.37
2019-01-30T10:37:39.268Z,34.90
2019-01-30T10:40:17.149Z,35.43
2019-01-30T10:42:49.569Z,33.27
2019-01-30T10:45:21.168Z,32.83
2019-01-30T10:47:51.696Z,37.03
2019-01-30T10:50:30.668Z,39.43
2019-01-30T10:53:01.239Z,33.87
2019-01-30T10:55:35.729Z,33.93
2019-01-30T10:58:10.209Z,38.77
2019-01-30T11:00:47.493Z,43.80
2019-01-30T11:03:18.666Z,42.90
2019-01-30T11:05:49.439Z,42.77
2019-01-30T11:08:20.112Z,40.77
2019-01-30T11:10:51.105Z,32.30
2019-01-30T11:13:21.729Z,27.00
2019-01-30T11:15:52.594Z,27.83
2019-01-30T11:18:23.125Z,29.00
2019-01-30T11:20:53.642Z,26.10
2019-01-30T11:23:24.182Z,29.47
2019-01-30T11:25:56.952Z,27.53
2019-01-30T11:28:27.079Z,36.00
2019-01-30T11:31:00.680Z,40.23
2019-01-30T11:33:31.236Z,43.90
2019-01-30T11:36:01.788Z,42.13
2019-01-30T11:38:32.374Z,36.93
2019-01-30T11:41:03.802Z,38.00
2019-01-30T11:43:34.445Z,34.13
2019-01-30T11:46:05.274Z,40.10
2019-01-30T11:48:35.878Z,30.10
2019-01-30T11:51:06.644Z,29.73
2019-01-30T11:53:37.230Z,29.07
2019-01-30T11:56:08.135Z,28.77
2019-01-30T11:58:38.941Z,28.87
2019-01-30T12:01:13.000Z,25.43
2019-01-30T12:03:43.825Z,26.97
2019-01-30T12:06:15.032Z,29.40
2019-01-30T12:08:45.684Z,26.63
2019-01-30T12:11:18.110Z,25.73
2019-01-30T12:13:48.790Z,27.03
2019-01-30T12:16:19.442Z,24.63
2019-01-30T12:18:49.811Z,24.37
2019-01-30T12:21:20.485Z,21.07
2019-01-30T12:23:50.870Z,23.13
2019-01-30T12:26:21.418Z,28.10
2019-01-30T12:28:51.952Z,23.43
2019-01-30T12:31:23.018Z,23.87
2019-01-30T12:33:53.517Z,25.20
2019-01-30T12:36:23.946Z,25.97
2019-01-30T12:38:54.610Z,24.83
2019-01-30T12:41:26.059Z,24.47
2019-01-30T12:43:57.922Z,27.73
2019-01-30T12:46:28.393Z,31.17
2019-01-30T12:48:59.115Z,29.63
2019-01-30T12:51:29.732Z,31.57
2019-01-30T12:54:00.272Z,28.20
2019-01-30T12:56:31.874Z,27.00
2019-01-30T12:59:02.587Z,26.33
2019-01-30T13:01:33.389Z,27.73
2019-01-30T13:04:05.175Z,29.83
2019-01-30T13:06:35.749Z,30.33
2019-01-30T13:09:08.861Z,30.63
2019-01-30T13:11:39.505Z,28.60
2019-01-30T13:14:10.204Z,30.00
2019-01-30T13:16:40.898Z,26.40
2019-01-30T13:19:11.513Z,26.13
2019-01-30T13:21:42.067Z,26.47
2019-01-30T13:24:12.641Z,25.37
2019-01-30T13:26:49.597Z,28.33
2019-01-30T13:29:20.126Z,25.23
2019-01-30T13:31:51.524Z,27.47
2019-01-30T13:34:29.566Z,27.30
2019-01-30T13:37:00.093Z,26.93
2019-01-30T13:39:30.736Z,30.67
2019-01-30T13:42:02.267Z,30.60
2019-01-30T13:44:32.919Z,28.87
2019-01-30T13:47:04.826Z,29.33
2019-01-30T13:49:35.369Z,27.13
2019-01-30T13:52:07.117Z,29.27
2019-01-30T13:54:37.876Z,32.90
2019-01-30T13:57:08.531Z,33.33
2019-01-30T13:59:39.064Z,32.00
2019-01-30T14:02:09.682Z,28.50
2019-01-30T14:04:40.357Z,27.23
2019-01-30T14:07:11.006Z,27.47
2019-01-30T14:09:41.562Z,29.93
2019-01-30T14:12:12.147Z,27.70
2019-01-30T14:14:42.938Z,27.60
2019-01-30T14:17:13.466Z,26.60
2019-01-30T14:19:44.241Z,25.27
2019-01-30T14:22:14.818Z,25.37
2019-01-30T14:24:46.345Z,24.57
2019-01-30T14:27:16.938Z,28.27
2019-01-30T14:29:57.921Z,24.67
2019-01-30T14:32:20.080Z,23.87
2019-01-30T14:34:50.669Z,24.43
2019-01-30T14:37:22.471Z,22.07
2019-01-30T14:39:53.162Z,24.33
2019-01-30T14:42:25.232Z,25.63
2019-01-30T14:44:56.580Z,24.77
2019-01-30T14:47:27.219Z,25.53
2019-01-30T14:49:59.033Z,21.63
2019-01-30T14:52:29.589Z,23.73
2019-01-30T14:55:00.385Z,20.77
2019-01-30T14:57:31.053Z,25.23
2019-01-30T15:00:02.685Z,21.70
2019-01-30T15:02:33.362Z,25.37
2019-01-30T15:05:09.717Z,20.60
2019-01-30T15:07:40.385Z,22.53
2019-01-30T15:10:17.858Z,25.60
2019-01-30T15:12:48.559Z,24.67
2019-01-30T15:15:22.641Z,25.37
2019-01-30T15:17:53.297Z,26.23
2019-01-30T15:20:29.637Z,31.33
2019-01-30T15:23:00.386Z,27.57
2019-01-30T15:25:31.018Z,29.03
2019-01-30T15:28:01.704Z,30.37
2019-01-30T15:30:36.543Z,27.87
2019-01-30T15:33:07.543Z,29.87
2019-01-30T15:35:38.165Z,28.20
2019-01-30T15:38:10.952Z,32.83
2019-01-30T15:40:41.882Z,29.57
2019-01-30T15:43:13.211Z,27.10
2019-01-30T15:45:43.835Z,29.13
2019-01-30T15:48:14.439Z,32.17
2019-01-30T15:50:45.068Z,27.13
2019-01-30T15:53:16.378Z,31.67
2019-01-30T15:55:47.959Z,30.00
2019-01-30T15:58:18.622Z,36.13
2019-01-30T16:00:53.530Z,32.27
2019-01-30T16:03:24.211Z,31.73
2019-01-30T16:05:54.841Z,29.40
2019-01-30T16:08:25.374Z,31.27
2019-01-30T16:10:55.976Z,27.47
2019-01-30T16:13:26.549Z,28.83
2019-01-30T16:16:00.869Z,30.90
2019-01-30T16:18:31.528Z,34.40
2019-01-30T16:21:02.045Z,34.37
2019-01-30T16:23:32.668Z,34.17
2019-01-30T16:26:03.219Z,33.60
2019-01-30T16:28:33.754Z,33.67
2019-01-30T16:31:04.541Z,36.30
2019-01-30T16:33:35.108Z,40.30
2019-01-30T16:36:06.195Z,37.20
2019-01-30T16:38:36.711Z,46.03
2019-01-30T16:41:07.323Z,38.40
2019-01-30T16:43:42.249Z,39.53
2019-01-30T16:46:12.782Z,39.57
2019-01-30T16:48:43.302Z,33.73
2019-01-30T16:51:13.871Z,33.93
2019-01-30T16:53:44.508Z,35.53
2019-01-30T16:56:15.064Z,35.50
2019-01-30T16:58:45.701Z,33.30
2019-01-30T17:01:17.514Z,32.63
2019-01-30T17:03:47.915Z,33.60
2019-01-30T17:06:18.555Z,33.60
2019-01-30T17:08:49.169Z,36.27
2019-01-30T17:11:20.406Z,38.13
2019-01-30T17:13:51.601Z,37.47
2019-01-30T17:16:22.873Z,32.83
2019-01-30T17:18:54.710Z,35.73
2019-01-30T17:21:25.366Z,35.93
2019-01-30T17:23:57.214Z,36.50
2019-01-30T17:26:30.107Z,36.27
2019-01-30T17:29:00.687Z,37.07
2019-01-30T17:31:31.226Z,33.67
2019-01-30T17:34:01.781Z,42.17
2019-01-30T17:36:33.498Z,39.60
2019-01-30T17:39:05.652Z,40.80
2019-01-30T17:41:36.571Z,41.53
2019-01-30T17:44:08.010Z,40.37
2019-01-30T17:46:39.478Z,42.40
2019-01-30T17:49:10.104Z,44.13
2019-01-30T17:51:42.874Z,44.77
2019-01-30T17:54:14.316Z,41.20
2019-01-30T17:56:44.900Z,38.77
2019-01-30T17:59:15.960Z,48.13
2019-01-30T18:01:46.472Z,40.67
2019-01-30T18:04:17.222Z,40.20
2019-01-30T18:06:49.833Z,40.70
2019-01-30T18:09:20.399Z,43.00
2019-01-30T18:11:51.086Z,45.97
2019-01-30T18:14:21.616Z,36.73
2019-01-30T18:16:52.231Z,45.97
2019-01-30T18:19:22.793Z,43.23
2019-01-30T18:21:53.177Z,42.50
2019-01-30T18:24:23.876Z,43.77
2019-01-30T18:26:54.437Z,46.00
2019-01-30T18:29:27.821Z,49.37
2019-01-30T18:31:58.207Z,46.67
2019-01-30T18:34:28.784Z,44.30
2019-01-30T18:36:59.374Z,37.13
2019-01-30T18:39:29.811Z,38.73
2019-01-30T18:42:03.044Z,39.27
2019-01-30T18:44:34.220Z,39.70
2019-01-30T18:47:05.257Z,38.37
2019-01-30T18:49:35.606Z,39.83
2019-01-30T18:52:06.193Z,36.50
2019-01-30T18:54:36.887Z,33.17
2019-01-30T18:57:07.447Z,37.33
2019-01-30T18:59:37.948Z,36.57
2019-01-30T19:02:08.554Z,39.97
2019-01-30T19:04:39.251Z,38.17
2019-01-30T19:07:09.897Z,39.40
2019-01-30T19:09:40.442Z,40.03
2019-01-30T19:12:11.012Z,41.53
2019-01-30T19:14:41.461Z,39.00
2019-01-30T19:17:11.924Z,38.40
2019-01-30T19:19:43.512Z,40.57
2019-01-30T19:22:14.047Z,38.70
2019-01-30T19:24:44.611Z,41.03
2019-01-30T19:27:15.404Z,44.63
2019-01-30T19:29:46.044Z,46.23
2019-01-30T19:32:16.601Z,46.63
2019-01-30T19:34:47.255Z,42.83
2019-01-30T19:37:17.813Z,41.07
2019-01-30T19:39:48.682Z,42.63
2019-01-30T19:42:19.289Z,41.37
2019-01-30T19:44:50.636Z,39.87
2019-01-30T19:47:21.122Z,47.53
2019-01-30T19:49:51.593Z,43.50
2019-01-30T19:52:22.108Z,41.03
2019-01-30T19:54:53.417Z,41.73
2019-01-30T19:57:24.201Z,44.07
2019-01-30T19:59:54.747Z,43.80
2019-01-30T20:02:25.295Z,41.67
2019-01-30T20:04:55.777Z,42.33
2019-01-30T20:07:26.713Z,42.83
2019-01-30T20:09:57.332Z,41.93
2019-01-30T20:12:28.954Z,40.90
2019-01-30T20:14:59.523Z,46.33
2019-01-30T20:17:30.040Z,50.23
2019-01-30T20:20:03.505Z,40.63
2019-01-30T20:22:36.141Z,44.20
2019-01-30T20:25:11.507Z,39.77
2019-01-30T20:27:42.054Z,46.10
2019-01-30T20:30:16.887Z,41.67
2019-01-30T20:32:47.515Z,49.20
2019-01-30T20:35:18.157Z,52.40
2019-01-30T20:37:48.661Z,48.40
2019-01-30T20:40:29.743Z,46.47
2019-01-30T20:43:00.564Z,42.20
2019-01-30T20:45:33.822Z,43.67
2019-01-30T20:48:04.255Z,43.73
2019-01-30T20:50:34.887Z,46.97
2019-01-30T20:53:05.611Z,52.70
2019-01-30T20:55:36.337Z,48.37
2019-01-30T20:58:07.149Z,55.97
2019-01-30T21:00:38.879Z,48.30
2019-01-30T21:03:09.502Z,48.47
2019-01-30T21:05:40.101Z,58.20
2019-01-30T21:08:10.631Z,55.07
2019-01-30T21:10:42.224Z,45.33
2019-01-30T21:13:12.940Z,48.53
2019-01-30T21:15:43.471Z,47.17
2019-01-30T21:18:14.073Z,53.73
2019-01-30T21:20:44.613Z,48.57
2019-01-30T21:23:15.289Z,47.10
2019-01-30T21:25:46.596Z,46.37
2019-01-30T21:28:17.110Z,49.17
2019-01-30T21:30:47.970Z,43.70
2019-01-30T21:33:18.498Z,47.10
2019-01-30T21:35:49.005Z,51.40
2019-01-30T21:38:20.177Z,54.57
2019-01-30T21:40:50.744Z,50.87
2019-01-30T21:43:21.286Z,57.30
2019-01-30T21:45:52.673Z,52.90
2019-01-30T21:48:23.356Z,54.37
2019-01-30T21:50:54.035Z,55.33
2019-01-30T21:53:24.567Z,52.87
2019-01-30T21:55:55.146Z,54.17
2019-01-30T21:58:25.921Z,52.07
2019-01-30T22:00:57.508Z,52.20
2019-01-30T22:03:32.579Z,60.90
2019-01-30T22:06:06.708Z,62.70
2019-01-30T22:08:37.453Z,64.17
2019-01-30T22:11:10.688Z,62.27
2019-01-30T22:13:43.201Z,62.87
2019-01-30T22:16:14.038Z,64.07
2019-01-30T22:18:48.832Z,72.33
2019-01-30T22:21:20.125Z,60.20
2019-01-30T22:23:50.747Z,58.53
2019-01-30T22:26:24.329Z,57.10
2019-01-30T22:28:56.694Z,56.47
2019-01-30T22:31:27.206Z,57.30
2019-01-30T22:33:57.656Z,58.20
2019-01-30T22:36:28.366Z,58.73
2019-01-30T22:38:58.825Z,60.23
2019-01-30T22:41:29.458Z,52.53
2019-01-30T22:44:00.311Z,54.63
2019-01-30T22:46:32.567Z,51.43
2019-01-30T22:49:04.685Z,57.07
2019-01-30T22:51:35.190Z,51.23
2019-01-30T22:54:06.301Z,55.93
2019-01-30T22:56:36.912Z,56.07
2019-01-30T22:59:07.457Z,50.40
2019-01-30T23:01:42.636Z,52.30
2019-01-30T23:04:29.242Z,50.27
2019-01-30T23:07:13.048Z,62.83
2019-01-30T23:10:14.851Z,57.27
2019-01-30T23:13:04.512Z,61.97
2019-01-30T23:16:12.767Z,56.87
2019-01-30T23:18:53.664Z,65.37
2019-01-30T23:21:40.598Z,58.97
2019-01-30T23:24:32.394Z,59.73
2019-01-30T23:27:13.173Z,58.43
2019-01-30T23:30:00.238Z,63.97
2019-01-30T23:33:09.881Z,71.27
2019-01-30T23:35:50.686Z,67.63
2019-01-30T23:38:44.746Z,61.57
2019-01-30T23:41:27.413Z,60.23
2019-01-30T23:44:16.881Z,65.33
2019-01-30T23:47:10.155Z,59.53
2019-01-30T23:50:00.059Z,66.17
2019-01-30T23:52:46.651Z,68.43
2019-01-30T23:55:27.435Z,62.17
2019-01-30T23:58:02.521Z,62.60
